Airfield :
LOGIN :

Register | Disclaimer

   EN    FR    IT 

 










Legend :    VFR   Marginal VFR   IFR   Intensive IFR   Very Intensive IFR
Visi :
Ceiling :
>= 8 km
>= 3000ft
5 to 8 km
1000 to 3000 ft
1500m to 5 km
500 to 1000 ft
800 to 1500m
200 to 500 ft
< 800m
< 200 ft
Symbols :   Thunderstorms  Fog  Heavy snow  Heavy precipitations  Wind > 20 kt
SIGMETs :     Misc.  Thunderstorms  Icing  Turbulence  Mountain Waves  Volcanic Ashes






- Airport Elevation : 219 ft
- IATA code : DNR


LFRD - Dinard

CURRENT METAR :
  • 010430Z AUTO 35014KT 9999 BKN015 BKN021 BKN027 11/10 Q1024 NOSIG

EXPIRED METARs :
  • 010400Z AUTO 33013KT 9999 FEW012 BKN036 OVC042 11/10 Q1024 TEMPO 34015G25KT
  • 010330Z AUTO 35014KT 9999 SCT011 BKN016 BKN021 11/10 Q1024 TEMPO 34015G25KT
  • 010300Z AUTO 33013KT 9999 3900 RA BKN010 OVC015 11/10 Q1024 TEMPO 34015G25KT BECMG NSW BKN020
  • 010230Z AUTO 32011KT 9999 BKN007 OVC016 11/11 Q1024 TEMPO 34015G25KT BECMG BKN020
  • 010200Z AUTO 32017KT 6000 -RA BKN006 BKN010 OVC014 11/10 Q1025 TEMPO 34015G25KT 2000 -RA BECMG BKN020

TAF AMD TAF LFRD
Valid from the 01 at 03:00 until the 02 at 00:00 UTC


010310Z 0103/0124 30012KT 7000 BKN020
TEMPO 0103/0104 2000 -RA BKN009
TEMPO 0103/0105 34015G25KT
BECMG 0103/0105 01015KT
ATIS : +33 2 99 16 81 50



MET'MAP, your aeronautical weather chart ! - Copyright ORBIFLY December 2007 - Disclaimer

ORBIFLY MET'MAP TEAM :

Programming & Development : Alexandra Zaïnal
Concept & original design : Baudouin d'Aumeries
Assistance for programming : Marc-Olivier Méhu
Technical & hardware support : Manuel Goepfert

Contact : metmap@orbifly.com




SOURCES & CREDITS :

   NOAA